EPGDEPWA

Guest
Details From EPGD - Lech Walesa
To EPWA - Warsaw Okecie - Frederic Chopin
Flight Number -
Tags Generated
Created
Modified
Stats Distance 160 nm / 296 km
Max Altitude 0 ft / 0 m
Waypoints 2
Social Downloads 1
Likes 0
Share VATSIM

Download

Looking for another format? Having issues loading an existing format? Contact us
Advertisement - Login to hide

Notes

Generated

Route

EPGD EPWA

ID Type Via Altitude Latitude Longitude Leg Dist Tot Dist Heading (true) Name
O EPGD APT - 0 ft / 0 m 54.38107˚ 18.45205˚ - 0 nm - -
O EPWA APT - 0 ft / 0 m 52.17148˚ 20.94671˚ 160 nm 160 nm 145° / 147° -

Altitude Profile

Advertisement - Login to hide

EPGD

Details ICAO EPGD (GDN)
Name LECH WALESA
Region Poland
Timezone Europe/Warsaw (UTC+1.0)
Stats Elevation 489 ft / 149 m (AMSL)
Location 54.376167° 18.471884°
Runways 1
Magnetic Variation 5.450° E

METAR

EPGD 121000Z 22015KT 9999 SCT014 07/04 Q0990 R11/290095

Decode

TAF

TAF TAF EPGD 120530Z 1206/1306 22010KT 9999 BKN030 TEMPO 1206/1208 -RA BKN005 BECMG 1208/1210 24015G25KT TEMPO 1210/1218 24020G35KT BKN014 TEMPO 1218/1306 4000 -RASN BKN009 BECMG 1221/1223 27010KT

Decode

Departure Runways

ID Width Length Bearing (true) Bearing (mag) Surface Threshold Offset Overrun Length
11 148 ft / 45 m 9,158 ft / 2,791 m 112.96° 107.51° Asphalt 0 ft / 0 m 0 ft / 0 m
29 148 ft / 45 m 9,158 ft / 2,791 m 293.00° 287.55° Asphalt 0 ft / 0 m 0 ft / 0 m

EPWA

Details ICAO EPWA (WAW)
Name WARSZAWA Okecie
Region Poland
Timezone Europe/Warsaw (UTC+1.0)
Stats Elevation 328 ft / 100 m (AMSL)
Location 52.165091° 20.966923°
Runways 2
Magnetic Variation 5.801° E

METAR

EPWA 121000Z 20010KT 9999 SCT030 BKN037 10/05 Q0998 NOSIG

Decode

TAF

TAF EPWA 120530Z 1206/1306 16012KT 9999 BKN040 BECMG 1209/1211 24015KT TEMPO 1210/1220 25020G35KT PROB40 TEMPO 1302/1306 -RA BKN014

Decode

Destination Runways

ID Width Length Bearing (true) Bearing (mag) Surface Threshold Offset Overrun Length
11 164 ft / 50 m 9,163 ft / 2,793 m 114.64° 108.84° Asphalt 0 ft / 0 m 476 ft / 145 m
15 197 ft / 60 m 12,112 ft / 3,692 m 151.85° 146.05° Asphalt 0 ft / 0 m 0 ft / 0 m
29 164 ft / 50 m 9,163 ft / 2,793 m 294.67° 288.87° Asphalt 1,608 ft / 490 m 0 ft / 0 m
33 197 ft / 60 m 12,112 ft / 3,692 m 331.87° 326.07° Asphalt 0 ft / 0 m 0 ft / 0 m

Approach Navaids

Runway Type Ident Frequency Range Bearing (true) Bearing (mag) Slope Elevation
11 Localiser WAS 109.90 MHz 18 nm / 33 km 114.53° 108.73° - 328 ft / 100 m (AMSL)
11 Glidescope WAS 109.90 MHz 10 nm / 19 km 114.66° 108.86° 3.00° 328 ft / 100 m (AMSL)
11 DME WAS 109.90 MHz 18 nm / 33 km - - - 394 ft / 120 m (AMSL)
33 Localiser WA 110.30 MHz 18 nm / 33 km 331.88° 326.08° - 328 ft / 100 m (AMSL)
33 Glidescope WA 110.30 MHz 10 nm / 19 km 331.86° 326.06° 3.00° 328 ft / 100 m (AMSL)
33 DME WA 110.30 MHz 18 nm / 33 km - - - 394 ft / 120 m (AMSL)

Popular Alternatives